createdAt,value
2022-10-23T00:01:42.342Z,46.80
2022-10-23T00:04:15.689Z,48.10
2022-10-23T00:06:44.374Z,47.30
2022-10-23T00:09:19.059Z,45.77
2022-10-23T00:11:48.568Z,50.17
2022-10-23T00:14:18.422Z,45.43
2022-10-23T00:16:46.813Z,43.67
2022-10-23T00:19:16.351Z,43.83
2022-10-23T00:21:44.370Z,47.93
2022-10-23T00:24:12.402Z,47.00
2022-10-23T00:26:40.657Z,48.93
2022-10-23T00:29:09.792Z,47.80
2022-10-23T00:31:38.525Z,46.50
2022-10-23T00:34:08.380Z,49.43
2022-10-23T00:36:38.822Z,52.67
2022-10-23T00:39:07.203Z,51.23
2022-10-23T00:41:35.350Z,51.57
2022-10-23T00:44:09.180Z,50.87
2022-10-23T00:46:38.073Z,50.40
2022-10-23T00:49:07.603Z,47.67
2022-10-23T00:51:41.378Z,52.23
2022-10-23T00:54:26.067Z,49.23
2022-10-23T00:56:57.190Z,53.37
2022-10-23T00:59:25.880Z,49.53
2022-10-23T01:01:54.008Z,48.40
2022-10-23T01:04:23.525Z,43.57
2022-10-23T01:07:01.016Z,47.07
2022-10-23T01:09:33.262Z,44.77
2022-10-23T01:12:05.769Z,44.73
2022-10-23T01:14:44.032Z,43.30
2022-10-23T01:17:20.872Z,44.77
2022-10-23T01:20:00.429Z,45.83
2022-10-23T01:22:50.926Z,45.17
2022-10-23T01:25:30.622Z,41.73
2022-10-23T01:28:03.856Z,44.30
2022-10-23T01:30:34.249Z,41.73
2022-10-23T01:33:07.901Z,44.87
2022-10-23T01:35:38.841Z,44.47
2022-10-23T01:38:14.561Z,43.70
2022-10-23T01:40:49.352Z,46.17
2022-10-23T01:43:21.456Z,47.33
2022-10-23T01:45:52.724Z,42.60
2022-10-23T01:48:25.035Z,42.97
2022-10-23T01:50:55.716Z,42.13
2022-10-23T01:53:30.617Z,42.23
2022-10-23T01:56:00.366Z,44.57
2022-10-23T01:58:32.480Z,41.67
2022-10-23T02:01:04.491Z,43.53
2022-10-23T02:03:36.507Z,44.33
2022-10-23T02:06:04.669Z,45.33
2022-10-23T02:08:33.216Z,45.90
2022-10-23T02:11:09.152Z,48.20
2022-10-23T02:13:51.293Z,46.93
2022-10-23T02:16:26.450Z,45.17
2022-10-23T02:19:01.331Z,44.77
2022-10-23T02:21:34.471Z,47.57
2022-10-23T02:24:06.404Z,47.80
2022-10-23T02:26:45.319Z,50.90
2022-10-23T02:29:20.105Z,49.13
2022-10-23T02:31:48.165Z,51.03
2022-10-23T02:34:16.163Z,50.50
2022-10-23T02:36:44.509Z,49.73
2022-10-23T02:39:12.522Z,53.33
2022-10-23T02:41:47.346Z,53.07
2022-10-23T02:44:41.614Z,49.67
2022-10-23T02:47:18.545Z,45.23
2022-10-23T02:49:54.942Z,49.93
2022-10-23T02:52:29.431Z,48.07
2022-10-23T02:55:09.405Z,51.97
2022-10-23T02:57:43.173Z,49.93
2022-10-23T03:00:16.283Z,47.60
2022-10-23T03:02:48.894Z,53.03
2022-10-23T03:05:20.910Z,49.10
2022-10-23T03:07:49.064Z,50.30
2022-10-23T03:10:17.193Z,47.07
2022-10-23T03:12:47.049Z,48.73
2022-10-23T03:15:17.595Z,47.17
2022-10-23T03:17:45.617Z,46.50
2022-10-23T03:20:13.677Z,43.80
2022-10-23T03:22:42.392Z,43.67
2022-10-23T03:25:11.346Z,41.33
2022-10-23T03:27:39.359Z,44.03
2022-10-23T03:30:08.791Z,41.70
2022-10-23T03:32:38.186Z,41.77
2022-10-23T03:35:06.985Z,39.27
2022-10-23T03:37:35.229Z,40.43
2022-10-23T03:40:03.841Z,40.57
2022-10-23T03:42:31.813Z,42.07
2022-10-23T03:44:59.817Z,44.40
2022-10-23T03:47:27.832Z,42.40
2022-10-23T03:49:57.181Z,41.60
2022-10-23T03:54:58.029Z,39.53
2022-10-23T03:57:26.587Z,41.00
2022-10-23T03:59:56.838Z,39.77
2022-10-23T04:02:24.998Z,37.20
2022-10-23T04:04:53.339Z,39.00
2022-10-23T04:07:22.676Z,36.17
2022-10-23T04:09:50.648Z,35.53
2022-10-23T04:12:18.792Z,35.27
2022-10-23T04:14:53.360Z,36.23
2022-10-23T04:17:21.398Z,36.60
2022-10-23T04:19:49.981Z,36.00
2022-10-23T04:22:17.938Z,35.07
2022-10-23T04:24:48.056Z,34.27
2022-10-23T04:27:16.257Z,32.40
2022-10-23T04:29:44.392Z,33.77
2022-10-23T04:32:12.357Z,35.37
2022-10-23T04:34:40.360Z,33.97
2022-10-23T04:37:09.455Z,36.57
2022-10-23T04:39:37.423Z,37.87
2022-10-23T04:42:07.253Z,36.47
2022-10-23T04:44:35.496Z,37.27
2022-10-23T04:47:03.485Z,35.33
2022-10-23T04:49:31.661Z,35.97
2022-10-23T04:51:59.644Z,37.53
2022-10-23T04:54:27.618Z,33.77
2022-10-23T04:56:55.595Z,33.37
2022-10-23T04:59:24.978Z,37.57
2022-10-23T05:01:53.323Z,33.97
2022-10-23T05:04:21.592Z,37.07
2022-10-23T05:06:51.659Z,34.10
2022-10-23T05:09:19.729Z,36.57
2022-10-23T05:11:47.691Z,36.30
2022-10-23T05:14:20.548Z,34.10
2022-10-23T05:16:56.931Z,34.83
2022-10-23T05:19:29.806Z,34.53
2022-10-23T05:21:58.733Z,35.80
2022-10-23T05:24:27.511Z,33.07
2022-10-23T05:26:56.026Z,30.50
2022-10-23T05:29:24.055Z,32.00
2022-10-23T05:31:58.532Z,31.53
2022-10-23T05:34:28.757Z,29.93
2022-10-23T05:36:56.824Z,32.57
2022-10-23T05:39:25.161Z,31.30
2022-10-23T05:41:55.281Z,33.30
2022-10-23T05:44:23.256Z,28.83
2022-10-23T05:46:51.244Z,30.03
2022-10-23T05:49:21.103Z,29.57
2022-10-23T05:51:49.054Z,30.10
2022-10-23T05:54:17.025Z,29.27
2022-10-23T05:56:45.018Z,29.67
2022-10-23T05:59:20.416Z,30.50
2022-10-23T06:01:52.028Z,29.13
2022-10-23T06:04:21.506Z,30.43
2022-10-23T06:06:49.488Z,28.10
2022-10-23T06:09:17.632Z,29.63
2022-10-23T06:11:45.669Z,30.47
2022-10-23T06:14:13.655Z,27.43
2022-10-23T06:16:44.278Z,29.47
2022-10-23T06:19:12.422Z,28.50
2022-10-23T06:21:43.890Z,29.23
2022-10-23T06:24:14.666Z,30.43
2022-10-23T06:26:43.207Z,27.40
2022-10-23T06:29:11.206Z,28.20
2022-10-23T06:31:39.240Z,29.30
2022-10-23T06:34:07.267Z,26.77
2022-10-23T06:36:35.893Z,28.37
2022-10-23T06:39:05.453Z,24.90
2022-10-23T06:41:33.846Z,24.27
2022-10-23T06:44:08.425Z,23.90
2022-10-23T06:46:36.829Z,25.03
2022-10-23T06:49:05.160Z,23.47
2022-10-23T06:51:33.169Z,24.70
2022-10-23T06:54:01.369Z,23.00
2022-10-23T06:56:31.122Z,22.30
2022-10-23T06:58:59.278Z,22.03
2022-10-23T07:01:27.512Z,21.07
2022-10-23T07:03:56.081Z,21.00
2022-10-23T07:06:24.144Z,21.73
2022-10-23T07:08:52.283Z,22.17
2022-10-23T07:11:21.477Z,21.97
2022-10-23T07:13:50.817Z,21.90
2022-10-23T07:16:20.791Z,21.53
2022-10-23T07:18:50.579Z,21.20
2022-10-23T07:21:18.617Z,20.47
2022-10-23T07:23:46.628Z,19.80
2022-10-23T07:26:16.202Z,18.43
2022-10-23T07:28:46.329Z,18.17
2022-10-23T07:31:16.045Z,16.30
2022-10-23T07:33:44.475Z,16.00
2022-10-23T07:36:12.523Z,16.10
2022-10-23T07:38:40.733Z,17.07
2022-10-23T07:41:11.594Z,15.67
2022-10-23T07:43:40.841Z,15.00
2022-10-23T07:46:09.869Z,17.00
2022-10-23T07:48:39.976Z,16.97
2022-10-23T07:51:10.727Z,17.23
2022-10-23T07:53:40.137Z,19.07
2022-10-23T07:56:14.562Z,17.30
2022-10-23T07:58:44.528Z,16.87
2022-10-23T08:01:19.322Z,15.80
2022-10-23T08:03:49.154Z,16.10
2022-10-23T08:06:17.416Z,14.83
2022-10-23T08:11:24.912Z,15.17
2022-10-23T08:13:53.144Z,14.13
2022-10-23T08:16:21.689Z,14.93
2022-10-23T08:18:57.515Z,12.83
2022-10-23T08:21:25.542Z,14.20
2022-10-23T08:23:55.513Z,13.80
2022-10-23T08:26:25.294Z,14.13
2022-10-23T08:28:53.755Z,13.57
2022-10-23T08:31:23.198Z,13.93
2022-10-23T08:33:52.657Z,14.07
2022-10-23T08:36:22.707Z,11.97
2022-10-23T08:38:52.211Z,12.30
2022-10-23T08:41:26.407Z,12.57
2022-10-23T08:43:59.587Z,11.47
2022-10-23T08:46:32.622Z,12.23
2022-10-23T08:49:21.803Z,10.87
2022-10-23T08:51:53.480Z,12.73
2022-10-23T08:54:26.365Z,11.23
2022-10-23T08:57:11.537Z,11.50
2022-10-23T08:59:47.331Z,10.30
2022-10-23T09:02:22.297Z,11.70
2022-10-23T09:04:54.710Z,12.20
2022-10-23T09:07:42.672Z,10.60
2022-10-23T09:10:43.048Z,10.73
2022-10-23T09:13:30.454Z,10.17
2022-10-23T09:16:07.466Z,10.03
2022-10-23T09:18:36.131Z,11.47
2022-10-23T09:21:10.855Z,9.70
2022-10-23T09:23:39.276Z,9.70
2022-10-23T09:26:15.297Z,10.33
2022-10-23T09:28:48.945Z,8.20
2022-10-23T09:31:18.669Z,8.27
2022-10-23T09:33:56.962Z,9.00
2022-10-23T09:36:29.151Z,8.10
2022-10-23T09:38:59.847Z,8.23
2022-10-23T09:41:31.230Z,7.13
2022-10-23T09:44:12.925Z,7.73
2022-10-23T09:46:42.260Z,8.03
2022-10-23T09:49:18.368Z,7.33
2022-10-23T09:52:00.482Z,7.27
2022-10-23T09:54:30.605Z,7.90
2022-10-23T09:57:04.352Z,7.63
2022-10-23T09:59:32.848Z,7.57
2022-10-23T10:02:03.943Z,7.37
2022-10-23T10:04:37.321Z,6.60
2022-10-23T10:07:21.122Z,7.33
2022-10-23T10:09:49.387Z,7.67
2022-10-23T10:12:30.012Z,7.90
2022-10-23T10:15:07.408Z,6.60
2022-10-23T10:17:43.230Z,6.50
2022-10-23T10:20:36.998Z,8.23
2022-10-23T10:23:15.126Z,7.67
2022-10-23T10:25:54.862Z,6.97
2022-10-23T10:28:45.397Z,6.33
2022-10-23T10:31:20.399Z,6.83
2022-10-23T10:34:02.641Z,6.33
2022-10-23T10:36:43.844Z,6.20
2022-10-23T10:39:25.678Z,6.33
2022-10-23T10:42:31.625Z,7.83
2022-10-23T10:45:13.401Z,6.27
2022-10-23T10:47:50.544Z,7.10
2022-10-23T10:50:21.375Z,6.20
2022-10-23T10:52:55.756Z,6.13
2022-10-23T10:55:30.909Z,5.60
2022-10-23T10:58:16.577Z,5.80
2022-10-23T11:00:48.462Z,5.37
2022-10-23T11:03:29.424Z,9.00
2022-10-23T11:08:49.854Z,5.53
2022-10-23T11:11:34.158Z,5.10
2022-10-23T11:14:03.049Z,5.73
2022-10-23T11:16:34.709Z,5.20
2022-10-23T11:19:11.382Z,4.60
2022-10-23T11:21:45.944Z,3.87
2022-10-23T11:24:48.151Z,5.00
2022-10-23T11:27:32.268Z,6.07
2022-10-23T11:30:18.582Z,5.33
2022-10-23T11:33:13.944Z,7.27
2022-10-23T11:35:55.113Z,7.67
2022-10-23T11:38:28.001Z,7.50
2022-10-23T11:40:59.800Z,7.47
2022-10-23T11:43:33.460Z,7.97
2022-10-23T11:46:13.785Z,8.00
2022-10-23T11:48:43.851Z,8.13
2022-10-23T11:51:29.678Z,7.70
2022-10-23T11:54:27.277Z,7.20
2022-10-23T11:57:13.132Z,7.60
2022-10-23T11:59:53.556Z,7.00
2022-10-23T12:02:28.425Z,6.03
2022-10-23T12:04:57.268Z,5.83
2022-10-23T12:07:27.677Z,7.63
2022-10-23T12:09:58.957Z,6.70
2022-10-23T12:12:33.986Z,8.00
2022-10-23T12:15:20.180Z,6.53
2022-10-23T12:17:50.096Z,7.37
2022-10-23T12:20:31.711Z,6.13
2022-10-23T12:23:17.025Z,6.23
2022-10-23T12:25:59.392Z,6.50
2022-10-23T12:28:35.938Z,7.80
2022-10-23T12:31:17.615Z,5.20
2022-10-23T12:33:52.565Z,5.27
2022-10-23T12:36:41.908Z,4.87
2022-10-23T12:39:26.370Z,4.43
2022-10-23T12:41:54.818Z,5.70
2022-10-23T12:44:24.309Z,3.80
2022-10-23T12:46:57.249Z,4.13
2022-10-23T12:49:27.222Z,6.47
2022-10-23T12:52:00.433Z,4.17
2022-10-23T12:54:31.530Z,5.57
2022-10-23T12:57:00.082Z,5.20
2022-10-23T12:59:37.926Z,5.97
2022-10-23T13:02:24.398Z,4.80
2022-10-23T13:04:54.205Z,5.83
2022-10-23T13:07:29.510Z,5.53
2022-10-23T13:09:58.929Z,5.47
2022-10-23T13:12:29.418Z,5.30
2022-10-23T13:15:02.246Z,4.93
2022-10-23T13:17:40.634Z,4.83
2022-10-23T13:20:24.148Z,6.67
2022-10-23T13:23:00.493Z,4.37
2022-10-23T13:25:31.466Z,4.53
2022-10-23T13:28:32.257Z,5.30
2022-10-23T13:31:27.234Z,4.37
2022-10-23T13:34:22.476Z,4.10
2022-10-23T13:37:02.655Z,4.43
2022-10-23T13:39:33.000Z,4.33
2022-10-23T13:42:10.805Z,4.30
2022-10-23T13:44:38.859Z,4.37
2022-10-23T13:47:07.119Z,4.20
2022-10-23T13:49:36.521Z,4.97
2022-10-23T13:52:04.658Z,4.20
2022-10-23T13:54:32.727Z,4.33
2022-10-23T13:57:03.050Z,4.23
2022-10-23T13:59:31.167Z,4.00
2022-10-23T14:01:59.658Z,6.37
2022-10-23T14:04:27.734Z,4.53
2022-10-23T14:06:58.504Z,4.07
2022-10-23T14:09:26.637Z,3.87
2022-10-23T14:11:54.796Z,4.40
2022-10-23T14:14:22.834Z,4.07
2022-10-23T14:16:53.160Z,4.27
2022-10-23T14:19:23.639Z,6.30
2022-10-23T14:21:51.628Z,4.53
2022-10-23T14:24:23.568Z,4.87
2022-10-23T14:26:51.632Z,5.97
2022-10-23T14:29:23.891Z,4.67
2022-10-23T14:31:55.246Z,7.10
2022-10-23T14:34:26.076Z,5.40
2022-10-23T14:37:08.158Z,5.20
2022-10-23T14:39:38.413Z,4.77
2022-10-23T14:42:06.498Z,4.87
2022-10-23T14:44:34.550Z,6.07
2022-10-23T14:47:03.429Z,4.63
2022-10-23T14:49:31.803Z,4.97
2022-10-23T14:51:59.916Z,5.07
2022-10-23T14:54:29.326Z,5.00
2022-10-23T14:56:58.716Z,5.23
2022-10-23T14:59:28.346Z,4.60
2022-10-23T15:01:56.353Z,5.30
2022-10-23T15:04:24.698Z,6.13
2022-10-23T15:06:53.287Z,6.63
2022-10-23T15:09:21.430Z,7.23
2022-10-23T15:11:49.875Z,6.67
2022-10-23T15:14:19.977Z,6.43
2022-10-23T15:16:48.373Z,7.47
2022-10-23T15:19:18.529Z,7.40
2022-10-23T15:21:47.151Z,8.00
2022-10-23T15:24:15.658Z,6.90
2022-10-23T15:26:44.173Z,8.10
2022-10-23T15:29:12.989Z,7.73
2022-10-23T15:31:55.105Z,8.57
2022-10-23T15:34:25.508Z,8.50
2022-10-23T15:36:54.406Z,8.77
2022-10-23T15:39:24.666Z,7.00
2022-10-23T15:41:54.806Z,7.97
2022-10-23T15:44:25.827Z,6.93
2022-10-23T15:46:56.908Z,8.47
2022-10-23T15:49:26.013Z,6.03
2022-10-23T15:51:54.313Z,8.07
2022-10-23T15:54:22.613Z,6.90
2022-10-23T15:56:52.800Z,7.07
2022-10-23T15:59:23.469Z,9.33
2022-10-23T16:01:51.996Z,6.93
2022-10-23T16:04:21.517Z,7.50
2022-10-23T16:06:49.744Z,6.80
2022-10-23T16:09:18.205Z,7.80
2022-10-23T16:11:46.263Z,7.57
2022-10-23T16:14:16.926Z,7.13
2022-10-23T16:16:44.956Z,6.77
2022-10-23T16:19:13.706Z,6.63
2022-10-23T16:21:45.191Z,7.00
2022-10-23T16:24:13.281Z,7.57
2022-10-23T16:26:41.409Z,7.77
2022-10-23T16:29:10.828Z,11.37
2022-10-23T16:31:41.583Z,26.13
2022-10-23T16:34:09.592Z,59.23
2022-10-23T16:36:39.044Z,48.70
2022-10-23T16:39:10.038Z,39.07
2022-10-23T16:41:38.144Z,34.17
2022-10-23T16:44:06.407Z,26.27
2022-10-23T16:46:35.468Z,26.47
2022-10-23T16:49:04.340Z,24.03
2022-10-23T16:51:32.518Z,25.67
2022-10-23T16:54:01.381Z,22.90
2022-10-23T16:56:32.184Z,23.03
2022-10-23T16:59:01.133Z,23.40
2022-10-23T17:01:31.032Z,19.80
2022-10-23T17:03:59.144Z,18.73
2022-10-23T17:06:29.201Z,16.53
2022-10-23T17:08:58.058Z,20.83
2022-10-23T17:11:27.989Z,27.63
2022-10-23T17:13:59.797Z,36.83
2022-10-23T17:16:29.933Z,37.67
2022-10-23T17:18:58.568Z,29.33
2022-10-23T17:21:26.642Z,26.40
2022-10-23T17:23:54.794Z,25.43
2022-10-23T17:26:23.726Z,22.03
2022-10-23T17:28:51.835Z,24.43
2022-10-23T17:31:23.594Z,22.50
2022-10-23T17:33:53.802Z,20.00
2022-10-23T17:36:23.453Z,18.73
2022-10-23T17:38:52.036Z,18.33
2022-10-23T17:41:25.379Z,17.43
2022-10-23T17:43:57.188Z,16.20
2022-10-23T17:46:26.969Z,16.30
2022-10-23T17:48:57.310Z,16.30
2022-10-23T17:51:27.058Z,16.03
2022-10-23T17:53:56.965Z,17.83
2022-10-23T17:56:27.233Z,17.70
2022-10-23T17:59:00.351Z,18.30
2022-10-23T18:01:31.244Z,19.10
2022-10-23T18:04:02.294Z,17.87
2022-10-23T18:06:38.115Z,18.13
2022-10-23T18:09:07.159Z,16.90
2022-10-23T18:11:37.771Z,21.77
2022-10-23T18:14:07.841Z,27.53
2022-10-23T18:16:38.397Z,20.40
2022-10-23T18:19:06.585Z,21.43
2022-10-23T18:21:35.746Z,24.47
2022-10-23T18:24:05.072Z,20.83
2022-10-23T18:26:35.365Z,21.00
2022-10-23T18:29:07.186Z,21.13
2022-10-23T18:31:40.567Z,21.63
2022-10-23T18:34:13.497Z,21.50
2022-10-23T18:36:41.765Z,21.33
2022-10-23T18:39:13.465Z,20.63
2022-10-23T18:41:43.938Z,22.00
2022-10-23T18:44:15.712Z,21.30
2022-10-23T18:46:45.803Z,21.87
2022-10-23T18:49:14.580Z,19.80
2022-10-23T18:51:42.807Z,22.00
2022-10-23T18:54:15.992Z,20.17
2022-10-23T18:56:44.659Z,20.37
2022-10-23T18:59:15.080Z,20.93
2022-10-23T19:01:45.489Z,24.37
2022-10-23T19:04:15.983Z,26.33
2022-10-23T19:06:50.007Z,23.87
2022-10-23T19:09:20.891Z,27.33
2022-10-23T19:11:49.229Z,23.80
2022-10-23T19:14:22.191Z,21.80
2022-10-23T19:17:06.044Z,22.07
2022-10-23T19:19:46.781Z,23.13
2022-10-23T19:22:17.756Z,21.30
2022-10-23T19:24:52.568Z,22.80
2022-10-23T19:27:21.083Z,21.40
2022-10-23T19:29:52.619Z,20.53
2022-10-23T19:32:23.524Z,19.57
2022-10-23T19:34:53.419Z,18.60
2022-10-23T19:37:29.802Z,19.83
2022-10-23T19:39:57.899Z,20.77
2022-10-23T19:42:25.893Z,20.60
2022-10-23T19:44:54.066Z,17.20
2022-10-23T19:47:26.200Z,17.43
2022-10-23T19:49:54.205Z,16.83
2022-10-23T19:52:23.163Z,18.10
2022-10-23T19:54:51.309Z,17.37
2022-10-23T19:57:21.880Z,17.70
2022-10-23T19:59:50.953Z,17.00
2022-10-23T20:02:19.751Z,16.97
2022-10-23T20:04:51.884Z,17.40
2022-10-23T20:07:19.930Z,16.80
2022-10-23T20:09:50.277Z,15.87
2022-10-23T20:12:18.295Z,16.07
2022-10-23T20:14:46.381Z,18.50
2022-10-23T20:17:14.392Z,17.50
2022-10-23T20:19:42.415Z,17.80
2022-10-23T20:22:11.912Z,18.67
2022-10-23T20:24:42.213Z,21.73
2022-10-23T20:27:10.834Z,23.17
2022-10-23T20:29:38.821Z,26.97
2022-10-23T20:32:07.033Z,28.50
2022-10-23T20:34:41.953Z,28.47
2022-10-23T20:37:11.562Z,28.13
2022-10-23T20:39:39.801Z,25.17
2022-10-23T20:42:08.416Z,24.13
2022-10-23T20:44:36.444Z,23.70
2022-10-23T20:47:04.487Z,22.63
2022-10-23T20:49:32.511Z,24.97
2022-10-23T20:52:00.527Z,25.20
2022-10-23T20:54:29.930Z,26.93
2022-10-23T20:56:58.787Z,24.73
2022-10-23T20:59:26.997Z,25.77
2022-10-23T21:01:56.383Z,24.90
2022-10-23T21:04:27.472Z,25.57
2022-10-23T21:07:12.830Z,26.83
2022-10-23T21:09:42.411Z,27.13
2022-10-23T21:12:10.649Z,27.07
2022-10-23T21:14:38.960Z,29.53
2022-10-23T21:17:08.499Z,29.37
2022-10-23T21:19:36.700Z,33.03
2022-10-23T21:22:04.690Z,34.27
2022-10-23T21:24:32.676Z,37.27
2022-10-23T21:27:02.018Z,41.83
2022-10-23T21:29:29.970Z,45.87
2022-10-23T21:31:59.683Z,40.90
2022-10-23T21:34:28.810Z,61.77
2022-10-23T21:37:13.796Z,67.80
2022-10-23T21:39:42.666Z,86.10
2022-10-23T21:42:13.142Z,100.53
2022-10-23T21:44:41.233Z,80.27
2022-10-23T21:47:09.624Z,87.73
2022-10-23T21:49:37.799Z,79.70
2022-10-23T21:52:05.813Z,72.70
2022-10-23T21:54:36.872Z,68.03
2022-10-23T21:57:05.290Z,64.57
2022-10-23T21:59:36.085Z,52.23
2022-10-23T22:02:04.639Z,42.77
2022-10-23T22:04:32.898Z,47.37
2022-10-23T22:07:02.640Z,41.60
2022-10-23T22:09:31.438Z,41.10
2022-10-23T22:12:00.135Z,38.17
2022-10-23T22:14:28.567Z,43.30
2022-10-23T22:16:57.925Z,39.80
2022-10-23T22:19:26.489Z,43.10
2022-10-23T22:21:54.838Z,39.67
2022-10-23T22:24:24.124Z,38.67
2022-10-23T22:26:54.757Z,42.77
2022-10-23T22:29:27.244Z,40.73
2022-10-23T22:31:56.874Z,39.07
2022-10-23T22:34:48.351Z,33.73
2022-10-23T22:37:14.337Z,31.53
2022-10-23T22:39:42.800Z,31.30
2022-10-23T22:42:10.958Z,24.97
2022-10-23T22:44:38.963Z,27.97
2022-10-23T22:47:08.341Z,27.60
2022-10-23T22:49:36.561Z,27.60
2022-10-23T22:52:04.732Z,28.93
2022-10-23T22:54:32.889Z,29.70
2022-10-23T22:57:01.228Z,26.90
2022-10-23T22:59:29.293Z,25.53
2022-10-23T23:01:57.748Z,23.27
2022-10-23T23:04:43.096Z,21.93
2022-10-23T23:07:13.095Z,21.60
2022-10-23T23:09:43.825Z,20.67
2022-10-23T23:12:14.733Z,21.13
2022-10-23T23:14:43.718Z,21.00
2022-10-23T23:17:12.026Z,22.57
2022-10-23T23:19:41.381Z,22.10
2022-10-23T23:22:09.578Z,21.23
2022-10-23T23:24:37.912Z,21.37
2022-10-23T23:27:05.906Z,21.90
2022-10-23T23:29:34.143Z,24.43
2022-10-23T23:32:02.157Z,22.77
2022-10-23T23:34:30.206Z,21.80
2022-10-23T23:36:59.553Z,20.50
2022-10-23T23:39:28.525Z,19.73
2022-10-23T23:41:56.763Z,20.27
2022-10-23T23:44:24.765Z,21.43
2022-10-23T23:46:52.761Z,20.80
2022-10-23T23:49:20.727Z,20.23
2022-10-23T23:51:48.970Z,18.83
2022-10-23T23:54:18.934Z,19.47
2022-10-23T23:56:46.902Z,18.97
2022-10-23T23:59:14.947Z,23.40
